sensor_id;sensor_type;location;lat;lon;timestamp;temperature;humidity
20418;DHT22;10368;51.436;6.774;2022-09-16T00:01:17;13.70;99.90
20418;DHT22;10368;51.436;6.774;2022-09-16T00:03:46;13.70;99.90
20418;DHT22;10368;51.436;6.774;2022-09-16T00:06:27;13.60;99.90
20418;DHT22;10368;51.436;6.774;2022-09-16T00:08:59;13.60;99.90
20418;DHT22;10368;51.436;6.774;2022-09-16T00:11:27;13.60;99.90
20418;DHT22;10368;51.436;6.774;2022-09-16T00:13:56;13.60;99.90
20418;DHT22;10368;51.436;6.774;2022-09-16T00:16:25;13.60;99.90
20418;DHT22;10368;51.436;6.774;2022-09-16T00:18:56;13.60;99.90
20418;DHT22;10368;51.436;6.774;2022-09-16T00:21:24;13.50;99.90
20418;DHT22;10368;51.436;6.774;2022-09-16T00:23:54;13.60;99.90
20418;DHT22;10368;51.436;6.774;2022-09-16T00:26:21;13.70;99.90
20418;DHT22;10368;51.436;6.774;2022-09-16T00:28:49;13.70;99.90
20418;DHT22;10368;51.436;6.774;2022-09-16T00:31:18;13.60;99.90
20418;DHT22;10368;51.436;6.774;2022-09-16T00:33:46;13.60;99.90
20418;DHT22;10368;51.436;6.774;2022-09-16T00:36:18;13.60;99.90
20418;DHT22;10368;51.436;6.774;2022-09-16T00:38:57;13.60;99.90
20418;DHT22;10368;51.436;6.774;2022-09-16T00:41:30;13.50;99.90
20418;DHT22;10368;51.436;6.774;2022-09-16T00:44:02;13.60;99.90
20418;DHT22;10368;51.436;6.774;2022-09-16T00:46:46;13.50;99.90
20418;DHT22;10368;51.436;6.774;2022-09-16T00:49:24;13.50;99.90
20418;DHT22;10368;51.436;6.774;2022-09-16T00:51:56;13.50;99.90
20418;DHT22;10368;51.436;6.774;2022-09-16T00:54:25;13.50;99.90
20418;DHT22;10368;51.436;6.774;2022-09-16T13:03:28;18.30;99.90
20418;DHT22;10368;51.436;6.774;2022-09-16T13:06:03;18.70;99.30
20418;DHT22;10368;51.436;6.774;2022-09-16T13:08:32;18.80;98.30
20418;DHT22;10368;51.436;6.774;2022-09-16T13:11:06;18.60;99.00
20418;DHT22;10368;51.436;6.774;2022-09-16T13:13:56;18.40;98.90
20418;DHT22;10368;51.436;6.774;2022-09-16T13:16:35;18.00;99.60
20418;DHT22;10368;51.436;6.774;2022-09-16T13:21:49;16.80;99.90
20418;DHT22;10368;51.436;6.774;2022-09-16T13:24:32;16.70;99.90
20418;DHT22;10368;51.436;6.774;2022-09-16T13:27:00;16.30;99.90
20418;DHT22;10368;51.436;6.774;2022-09-16T13:32:03;15.40;99.90
20418;DHT22;10368;51.436;6.774;2022-09-16T13:34:30;15.30;99.90
20418;DHT22;10368;51.436;6.774;2022-09-16T13:36:57;15.00;99.90
20418;DHT22;10368;51.436;6.774;2022-09-16T13:39:32;15.10;99.90
20418;DHT22;10368;51.436;6.774;2022-09-16T13:42:16;14.80;99.90
20418;DHT22;10368;51.436;6.774;2022-09-16T13:44:43;14.80;99.90
20418;DHT22;10368;51.436;6.774;2022-09-16T13:49:53;14.80;99.90
20418;DHT22;10368;51.436;6.774;2022-09-16T13:54:56;15.00;99.90
20418;DHT22;10368;51.436;6.774;2022-09-16T13:57:53;15.60;99.90
20418;DHT22;10368;51.436;6.774;2022-09-16T14:11:48;18.30;99.90
20418;DHT22;10368;51.436;6.774;2022-09-16T14:14:24;18.20;99.90
20418;DHT22;10368;51.436;6.774;2022-09-16T14:17:38;18.00;99.90
20418;DHT22;10368;51.436;6.774;2022-09-16T14:20:14;18.00;99.90
20418;DHT22;10368;51.436;6.774;2022-09-16T14:22:43;18.20;99.40
20418;DHT22;10368;51.436;6.774;2022-09-16T14:25:30;18.40;99.20
20418;DHT22;10368;51.436;6.774;2022-09-16T14:33:56;18.30;98.00
20418;DHT22;10368;51.436;6.774;2022-09-16T14:36:38;18.50;97.90
20418;DHT22;10368;51.436;6.774;2022-09-16T14:41:42;18.70;96.90
20418;DHT22;10368;51.436;6.774;2022-09-16T14:44:43;18.50;97.40
20418;DHT22;10368;51.436;6.774;2022-09-16T14:50:18;18.40;97.40
20418;DHT22;10368;51.436;6.774;2022-09-16T14:53:00;18.30;96.90
20418;DHT22;10368;51.436;6.774;2022-09-16T14:55:32;18.10;96.90
20418;DHT22;10368;51.436;6.774;2022-09-16T14:58:02;17.70;97.80
20418;DHT22;10368;51.436;6.774;2022-09-16T15:00:33;17.70;98.40
20418;DHT22;10368;51.436;6.774;2022-09-16T15:03:47;17.70;98.10
20418;DHT22;10368;51.436;6.774;2022-09-16T15:06:10;17.70;98.50
20418;DHT22;10368;51.436;6.774;2022-09-16T15:08:48;17.70;98.60
20418;DHT22;10368;51.436;6.774;2022-09-16T15:11:24;17.90;97.90
20418;DHT22;10368;51.436;6.774;2022-09-16T15:14:12;18.20;97.60
20418;DHT22;10368;51.436;6.774;2022-09-16T15:16:44;17.70;98.10
20418;DHT22;10368;51.436;6.774;2022-09-16T15:19:18;17.20;98.60
20418;DHT22;10368;51.436;6.774;2022-09-16T15:21:47;17.50;98.20
20418;DHT22;10368;51.436;6.774;2022-09-16T15:24:19;17.70;98.10
20418;DHT22;10368;51.436;6.774;2022-09-16T15:26:47;17.40;97.90
20418;DHT22;10368;51.436;6.774;2022-09-16T15:31:45;17.00;98.50
20418;DHT22;10368;51.436;6.774;2022-09-16T15:36:58;16.60;99.40
20418;DHT22;10368;51.436;6.774;2022-09-16T15:39:34;16.60;99.60
20418;DHT22;10368;51.436;6.774;2022-09-16T15:44:48;16.00;99.90
20418;DHT22;10368;51.436;6.774;2022-09-16T15:49:59;15.70;99.90
20418;DHT22;10368;51.436;6.774;2022-09-16T15:52:32;15.90;99.90
20418;DHT22;10368;51.436;6.774;2022-09-16T15:55:02;15.90;99.90
20418;DHT22;10368;51.436;6.774;2022-09-16T15:57:37;15.90;99.90
20418;DHT22;10368;51.436;6.774;2022-09-16T16:00:14;15.80;99.90
20418;DHT22;10368;51.436;6.774;2022-09-16T16:02:52;16.00;99.90
20418;DHT22;10368;51.436;6.774;2022-09-16T16:05:25;16.30;99.90
20418;DHT22;10368;51.436;6.774;2022-09-16T16:07:57;16.20;99.90
20418;DHT22;10368;51.436;6.774;2022-09-16T16:10:27;16.00;99.90
20418;DHT22;10368;51.436;6.774;2022-09-16T16:12:58;16.30;99.90
20418;DHT22;10368;51.436;6.774;2022-09-16T16:15:37;16.20;99.90
20418;DHT22;10368;51.436;6.774;2022-09-16T16:18:06;16.10;99.90
20418;DHT22;10368;51.436;6.774;2022-09-16T16:20:35;15.90;99.90
20418;DHT22;10368;51.436;6.774;2022-09-16T16:23:02;16.20;99.90
20418;DHT22;10368;51.436;6.774;2022-09-16T16:25:29;16.10;99.90
20418;DHT22;10368;51.436;6.774;2022-09-16T16:27:56;16.10;99.90
20418;DHT22;10368;51.436;6.774;2022-09-16T16:30:23;15.80;99.90
20418;DHT22;10368;51.436;6.774;2022-09-16T16:32:50;15.80;99.90
20418;DHT22;10368;51.436;6.774;2022-09-16T16:35:17;15.70;99.90
20418;DHT22;10368;51.436;6.774;2022-09-16T16:37:44;15.70;99.90
20418;DHT22;10368;51.436;6.774;2022-09-16T16:40:13;15.70;99.90
20418;DHT22;10368;51.436;6.774;2022-09-16T16:42:41;15.70;99.90
20418;DHT22;10368;51.436;6.774;2022-09-16T16:45:13;15.50;99.90
20418;DHT22;10368;51.436;6.774;2022-09-16T16:47:41;15.40;99.90
20418;DHT22;10368;51.436;6.774;2022-09-16T16:50:09;15.20;99.90
20418;DHT22;10368;51.436;6.774;2022-09-16T16:52:36;15.40;99.90
20418;DHT22;10368;51.436;6.774;2022-09-16T16:55:03;15.40;99.90
20418;DHT22;10368;51.436;6.774;2022-09-16T16:57:30;15.30;99.90
20418;DHT22;10368;51.436;6.774;2022-09-16T16:59:57;15.20;99.90
20418;DHT22;10368;51.436;6.774;2022-09-16T17:02:24;15.10;99.90
20418;DHT22;10368;51.436;6.774;2022-09-16T17:04:52;15.00;99.90
20418;DHT22;10368;51.436;6.774;2022-09-16T17:07:19;14.90;99.90
20418;DHT22;10368;51.436;6.774;2022-09-16T17:09:54;15.00;99.90
20418;DHT22;10368;51.436;6.774;2022-09-16T17:12:23;15.00;99.90
20418;DHT22;10368;51.436;6.774;2022-09-16T17:14:50;14.90;99.90
20418;DHT22;10368;51.436;6.774;2022-09-16T17:17:17;14.80;99.90
20418;DHT22;10368;51.436;6.774;2022-09-16T17:19:44;14.70;99.90
20418;DHT22;10368;51.436;6.774;2022-09-16T17:22:11;14.60;99.90
20418;DHT22;10368;51.436;6.774;2022-09-16T17:24:38;14.50;99.90
20418;DHT22;10368;51.436;6.774;2022-09-16T17:27:05;14.50;99.90
20418;DHT22;10368;51.436;6.774;2022-09-16T17:29:32;14.50;99.90
20418;DHT22;10368;51.436;6.774;2022-09-16T17:31:59;14.40;99.90
20418;DHT22;10368;51.436;6.774;2022-09-16T17:34:28;14.40;99.90
20418;DHT22;10368;51.436;6.774;2022-09-16T17:36:55;14.40;99.90
20418;DHT22;10368;51.436;6.774;2022-09-16T17:39:24;14.30;99.90
20418;DHT22;10368;51.436;6.774;2022-09-16T17:41:51;14.30;99.90
20418;DHT22;10368;51.436;6.774;2022-09-16T17:44:20;14.30;99.90
20418;DHT22;10368;51.436;6.774;2022-09-16T17:46:47;14.30;99.90
20418;DHT22;10368;51.436;6.774;2022-09-16T17:49:19;14.20;99.90
20418;DHT22;10368;51.436;6.774;2022-09-16T17:51:48;14.10;99.90
20418;DHT22;10368;51.436;6.774;2022-09-16T17:54:15;14.00;99.90
20418;DHT22;10368;51.436;6.774;2022-09-16T17:56:42;14.00;99.90
20418;DHT22;10368;51.436;6.774;2022-09-16T17:59:11;14.00;99.90
20418;DHT22;10368;51.436;6.774;2022-09-16T18:01:38;13.90;99.90
20418;DHT22;10368;51.436;6.774;2022-09-16T18:04:06;13.90;99.90
20418;DHT22;10368;51.436;6.774;2022-09-16T18:06:44;13.90;99.90
20418;DHT22;10368;51.436;6.774;2022-09-16T18:09:12;13.80;99.90
